Time;durP1;ratioP1;P1;durP2;ratioP2;P2;SDS_P1;SDS_P2;PMS_P1;PMS_P2;Temp;Humidity;BMP_temperature;BMP_pressure;BME280_temperature;BME280_humidity;BME280_pressure;Samples;Min_cycle;Max_cycle;Signal;HPM_P1;HPM_P2
2021/05/06 00:34:21;;;;;;;2.65;1.70;;;;;;;11.79;100.00;97961.88;1795510;78;20986;-63
2021/05/06 00:36:53;;;;;;;4.83;1.92;;;;;;;11.78;100.00;97963.66;1770709;78;21187;-63
2021/05/06 00:40:12;;;;;;;4.10;1.30;;;;;;;11.78;100.00;97961.02;1714637;82;21049;-64
2021/05/06 01:04:37;;;;;;;4.30;1.65;;;;;;;11.70;100.00;97952.42;1797862;78;21680;-64
2021/05/06 01:07:30;;;;;;;2.85;1.60;;;;;;;11.64;100.00;97946.00;1795429;78;21024;-64
2021/05/06 01:12:32;;;;;;;6.10;1.57;;;;;;;11.55;100.00;97929.97;1797739;79;21018;-62
2021/05/06 01:15:05;;;;;;;5.80;1.70;;;;;;;11.55;100.00;97934.38;1797840;78;20927;-63
2021/05/06 01:17:38;;;;;;;2.98;1.45;;;;;;;11.54;100.00;97940.58;1782071;78;22342;-63
2021/05/06 01:20:10;;;;;;;4.30;1.72;;;;;;;11.51;100.00;97932.29;1784357;77;20949;-63
2021/05/06 01:22:47;;;;;;;8.95;1.87;;;;;;;11.48;100.00;97931.52;1814895;79;20938;-63
2021/05/06 01:25:20;;;;;;;4.40;1.80;;;;;;;11.46;100.00;97929.38;1815299;77;21116;-64
2021/05/06 01:28:06;;;;;;;4.72;1.27;;;;;;;11.42;100.00;97929.91;1814622;77;20910;-64
2021/05/06 01:30:39;;;;;;;2.90;1.72;;;;;;;11.38;100.00;97928.27;1783144;79;21438;-64
2021/05/06 01:33:34;;;;;;;3.15;1.55;;;;;;;11.34;100.00;97930.56;1783400;79;20938;-62
2021/05/06 01:36:15;;;;;;;5.33;1.67;;;;;;;11.32;100.00;97938.98;1782814;79;21033;-64
2021/05/06 01:41:44;;;;;;;9.45;2.08;;;;;;;11.32;100.00;97935.88;1807136;79;21509;-64
2021/05/06 01:47:15;;;;;;;6.50;2.00;;;;;;;11.26;100.00;97932.09;1814744;77;21116;-64
2021/05/06 01:58:34;;;;;;;3.65;1.62;;;;;;;11.25;100.00;97926.86;1783243;79;21371;-63
2021/05/06 02:01:04;;;;;;;3.20;1.60;;;;;;;11.23;100.00;97933.50;1794001;77;21002;-63
2021/05/06 02:03:37;;;;;;;6.33;1.65;;;;;;;11.22;100.00;97937.05;1813056;77;20986;-64
2021/05/06 02:06:09;;;;;;;6.55;2.00;;;;;;;11.20;100.00;97925.67;1815029;77;20986;-64
2021/05/06 02:08:45;;;;;;;3.80;1.45;;;;;;;11.17;100.00;97918.30;1815382;77;20914;-64
2021/05/06 02:11:23;;;;;;;3.42;1.90;;;;;;;11.12;100.00;97917.11;1815199;77;21277;-64
2021/05/06 02:14:07;;;;;;;4.03;1.62;;;;;;;11.06;100.00;97920.37;1812595;79;21699;-64
2021/05/06 02:16:41;;;;;;;3.92;1.80;;;;;;;11.02;100.00;97922.23;1814642;79;21002;-62
2021/05/06 02:19:18;;;;;;;3.60;1.60;;;;;;;11.01;100.00;97919.17;1814881;77;21073;-63
2021/05/06 02:21:50;;;;;;;3.67;1.62;;;;;;;10.97;100.00;97913.12;1798224;78;20986;-63
2021/05/06 02:24:23;;;;;;;8.00;2.05;;;;;;;10.93;100.00;97919.39;1797657;78;21151;-63
2021/05/06 02:26:55;;;;;;;2.80;1.50;;;;;;;10.92;100.00;97922.06;1797356;78;20927;-63
2021/05/06 02:29:28;;;;;;;4.53;1.80;;;;;;;10.90;100.00;97928.70;1797796;78;20935;-63
2021/05/06 02:32:01;;;;;;;6.35;1.85;;;;;;;10.91;100.00;97929.11;1783793;78;21026;-63
2021/05/06 02:34:32;;;;;;;6.90;1.77;;;;;;;10.89;100.00;97940.16;1714323;82;21116;-63
2021/05/06 02:37:03;;;;;;;3.92;1.90;;;;;;;10.87;100.00;97941.08;1709314;82;22166;-64
2021/05/06 02:39:36;;;;;;;4.53;1.72;;;;;;;10.83;100.00;97927.56;1714252;82;20998;-67
2021/05/06 02:42:08;;;;;;;4.45;1.82;;;;;;;10.80;100.00;97937.73;1718251;82;21140;-63
2021/05/06 02:44:40;;;;;;;5.00;1.70;;;;;;;10.79;100.00;97941.73;1797667;78;21026;-62
2021/05/06 02:47:10;;;;;;;5.22;1.77;;;;;;;10.76;100.00;97946.64;1797426;78;21026;-62
2021/05/06 02:49:44;;;;;;;34.55;2.62;;;;;;;10.76;100.00;97953.69;1797732;78;22306;-63
2021/05/06 02:54:53;;;;;;;5.90;1.57;;;;;;;10.75;100.00;97952.82;1714325;82;20998;-61
2021/05/06 03:02:49;;;;;;;10.65;2.10;;;;;;;10.81;100.00;97949.16;1773696;79;21403;-64
2021/05/06 03:05:23;;;;;;;6.15;2.33;;;;;;;10.81;100.00;97951.80;1797905;78;20887;-64
2021/05/06 03:08:22;;;;;;;8.63;1.90;;;;;;;10.80;100.00;97950.92;1797888;78;21053;-64
2021/05/06 03:10:59;;;;;;;8.95;2.10;;;;;;;10.79;100.00;97952.28;1797586;78;20947;-64
2021/05/06 03:24:31;;;;;;;4.70;1.90;;;;;;;10.80;100.00;97968.53;1766635;79;21492;-64
2021/05/06 03:27:04;;;;;;;5.62;1.92;;;;;;;10.80;100.00;97975.13;1766469;80;20998;-65
2021/05/06 03:29:41;;;;;;;10.43;2.45;;;;;;;10.82;100.00;97972.86;1752564;79;22104;-67
2021/05/06 03:32:27;;;;;;;3.12;1.65;;;;;;;10.81;100.00;97977.72;1787622;78;20998;-65
2021/05/06 03:35:12;;;;;;;4.80;1.80;;;;;;;10.83;100.00;98000.97;1772742;78;20935;-65
2021/05/06 03:43:36;;;;;;;7.50;2.15;;;;;;;10.94;100.00;97984.89;1766715;80;21484;-63
2021/05/06 03:49:16;;;;;;;31.52;3.40;;;;;;;11.01;100.00;98015.03;1797950;78;20995;-66
2021/05/06 04:25:43;;;;;;;4.25;2.02;;;;;;;11.46;100.00;98079.89;1798393;78;21180;-67
2021/05/06 04:39:14;;;;;;;7.37;2.92;;;;;;;11.69;100.00;98117.11;1798690;78;21362;-67
2021/05/06 04:41:51;;;;;;;8.28;2.92;;;;;;;11.75;100.00;98114.30;1798478;79;20934;-65
2021/05/06 04:55:38;;;;;;;4.85;2.40;;;;;;;12.07;100.00;98121.39;1798419;79;21069;-66
2021/05/06 05:03:39;;;;;;;8.55;2.40;;;;;;;12.24;100.00;98124.41;1739506;80;21108;-65
2021/05/06 05:06:11;;;;;;;10.23;2.22;;;;;;;12.31;100.00;98123.81;1739444;82;21218;-67
2021/05/06 05:08:46;;;;;;;9.20;2.35;;;;;;;12.35;100.00;98120.16;1768774;79;20999;-66
2021/05/06 05:14:15;;;;;;;9.55;3.00;;;;;;;12.52;100.00;98123.17;1789622;78;27811;-66
2021/05/06 05:19:44;;;;;;;7.72;2.83;;;;;;;12.75;100.00;98114.98;1779392;80;21028;-66
2021/05/06 05:25:04;;;;;;;10.23;2.80;;;;;;;12.96;100.00;98106.84;1779628;80;20930;-67
2021/05/06 05:27:32;;;;;;;7.05;3.02;;;;;;;13.05;100.00;98123.75;1779425;79;21508;-66
2021/05/06 05:30:04;;;;;;;9.43;2.65;;;;;;;13.10;100.00;98125.79;1779457;80;21036;-67
2021/05/06 05:32:33;;;;;;;7.92;3.08;;;;;;;13.17;100.00;98133.97;1779502;79;22177;-66
2021/05/06 05:35:12;;;;;;;11.45;3.47;;;;;;;13.22;100.00;98126.75;1779484;80;20962;-67
2021/05/06 05:37:44;;;;;;;7.72;3.10;;;;;;;13.32;100.00;98141.91;1779336;80;20926;-67
2021/05/06 05:40:25;;;;;;;10.40;4.17;;;;;;;13.36;100.00;98147.05;1779643;80;20938;-66
2021/05/06 05:56:32;;;;;;;10.08;3.60;;;;;;;13.62;100.00;98173.98;1779143;80;20930;-67
2021/05/06 05:59:02;;;;;;;9.65;3.52;;;;;;;13.71;100.00;98182.95;1778942;80;22228;-68
2021/05/06 06:01:32;;;;;;;5.70;3.80;;;;;;;13.78;100.00;98178.34;1779032;80;21496;-67
2021/05/06 06:04:03;;;;;;;8.70;4.12;;;;;;;13.83;100.00;98181.70;1779024;79;20899;-66
2021/05/06 06:06:33;;;;;;;10.48;4.00;;;;;;;13.86;100.00;98182.45;1778995;79;20949;-68
2021/05/06 06:09:04;;;;;;;6.83;2.90;;;;;;;13.88;100.00;98182.41;1779038;79;20942;-66
2021/05/06 06:11:33;;;;;;;6.33;3.27;;;;;;;13.93;100.00;98188.87;1778980;79;21186;-66
2021/05/06 06:14:08;;;;;;;10.08;3.75;;;;;;;13.95;100.00;98193.66;1769286;79;21018;-67
2021/05/06 06:16:41;;;;;;;8.48;4.12;;;;;;;13.91;100.00;98203.96;1768362;81;20891;-66
2021/05/06 06:19:08;;;;;;;6.80;3.27;;;;;;;13.85;100.00;98202.39;1768311;81;20923;-66
2021/05/06 06:21:44;;;;;;;8.03;3.22;;;;;;;13.84;100.00;98210.80;1768268;81;20930;-67
2021/05/06 06:24:11;;;;;;;5.45;3.08;;;;;;;13.83;100.00;98210.85;1767876;81;21373;-66
2021/05/06 06:26:41;;;;;;;8.50;4.05;;;;;;;13.84;100.00;98219.22;1767700;81;21018;-66
2021/05/06 06:29:13;;;;;;;8.45;3.87;;;;;;;13.85;100.00;98228.44;1767845;80;20891;-66
2021/05/06 06:31:47;;;;;;;10.75;3.58;;;;;;;13.86;100.00;98237.26;1767793;81;21057;-66
2021/05/06 06:34:15;;;;;;;7.20;3.87;;;;;;;13.85;100.00;98241.70;1767909;80;21525;-66
2021/05/06 06:36:46;;;;;;;10.72;3.72;;;;;;;13.89;100.00;98256.17;1767819;81;21362;-66
2021/05/06 06:39:16;;;;;;;4.97;3.52;;;;;;;13.93;100.00;98275.90;1767805;81;20966;-67
2021/05/06 06:41:47;;;;;;;13.45;7.87;;;;;;;13.98;100.00;98274.42;1767850;80;20887;-67
2021/05/06 06:44:19;;;;;;;22.27;13.72;;;;;;;14.01;100.00;98270.34;1767851;80;20887;-66
2021/05/06 06:47:00;;;;;;;21.60;14.43;;;;;;;14.03;100.00;98276.45;1768027;80;20919;-66
2021/05/06 06:49:20;;;;;;;12.40;7.03;;;;;;;14.05;100.00;98275.94;1766841;81;21382;-66
2021/05/06 06:51:51;;;;;;;6.50;4.87;;;;;;;14.07;100.00;98281.59;1767828;81;21053;-66
2021/05/06 06:54:23;;;;;;;4.08;2.60;;;;;;;14.09;100.00;98276.25;1767920;80;20955;-66
2021/05/06 06:56:55;;;;;;;3.17;2.05;;;;;;;14.06;100.00;98279.00;1767953;80;20978;-66
2021/05/06 06:59:26;;;;;;;2.83;1.80;;;;;;;14.05;100.00;98280.78;1767920;80;20970;-66
2021/05/06 07:01:55;;;;;;;1.32;1.15;;;;;;;14.09;100.00;98285.06;1745010;81;21455;-66
2021/05/06 07:04:25;;;;;;;1.52;1.22;;;;;;;14.15;100.00;98273.38;1767938;80;20990;-66
2021/05/06 07:06:56;;;;;;;1.15;0.80;;;;;;;14.19;100.00;98273.72;1768110;80;21006;-65
2021/05/06 07:09:26;;;;;;;3.52;0.80;;;;;;;14.25;100.00;98272.17;1768339;80;20927;-66
2021/05/06 07:11:56;;;;;;;1.72;0.90;;;;;;;14.26;100.00;98284.52;1768203;81;20914;-66
2021/05/06 07:14:29;;;;;;;0.82;0.65;;;;;;;14.30;100.00;98295.43;1783377;79;21191;-66
2021/05/06 07:17:00;;;;;;;0.85;0.80;;;;;;;14.32;100.00;98285.63;1780324;80;20890;-66
2021/05/06 07:19:30;;;;;;;1.60;0.93;;;;;;;14.35;100.00;98297.92;1784675;80;21040;-66
2021/05/06 07:22:00;;;;;;;1.45;1.10;;;;;;;14.37;100.00;98301.39;1784563;79;20911;-66
2021/05/06 07:24:32;;;;;;;1.02;0.90;;;;;;;14.43;100.00;98293.25;1784276;79;21045;-66
2021/05/06 07:27:04;;;;;;;4.08;0.80;;;;;;;14.47;100.00;98284.25;1784595;80;21375;-66
2021/05/06 07:29:35;;;;;;;0.88;0.88;;;;;;;14.48;100.00;98285.98;1784719;79;20946;-66
2021/05/06 07:32:07;;;;;;;1.30;0.80;;;;;;;14.47;100.00;98279.81;1784889;79;21322;-67
2021/05/06 07:34:39;;;;;;;1.25;1.00;;;;;;;14.44;100.00;98291.86;1784882;79;20949;-66
2021/05/06 07:37:10;;;;;;;1.47;1.12;;;;;;;14.42;100.00;98280.86;1784649;79;21584;-67
2021/05/06 07:39:42;;;;;;;3.47;0.82;;;;;;;14.41;100.00;98283.98;1784639;80;21355;-67
2021/05/06 07:42:13;;;;;;;1.65;1.00;;;;;;;14.42;100.00;98286.17;1784581;79;20941;-66
2021/05/06 07:44:44;;;;;;;3.40;0.90;;;;;;;14.37;100.00;98291.64;1784575;80;20945;-67
2021/05/06 07:47:16;;;;;;;1.82;0.90;;;;;;;14.38;100.00;98302.66;1784563;79;20946;-67
2021/05/06 07:49:49;;;;;;;1.85;0.80;;;;;;;14.42;100.00;98303.42;1784895;80;20921;-66
2021/05/06 07:52:21;;;;;;;2.25;0.90;;;;;;;14.43;100.00;98314.02;1784505;79;21203;-67
2021/05/06 07:54:55;;;;;;;1.07;0.90;;;;;;;14.43;100.00;98313.14;1784482;80;21576;-66
2021/05/06 07:57:25;;;;;;;5.20;0.90;;;;;;;14.43;100.00;98329.94;1784872;80;21151;-65
2021/05/06 07:59:55;;;;;;;2.30;0.90;;;;;;;14.43;100.00;98329.94;1784542;79;21005;-66
2021/05/06 08:02:25;;;;;;;2.10;0.72;;;;;;;14.52;100.00;98337.17;1784763;79;21121;-66
2021/05/06 08:04:54;;;;;;;0.95;0.90;;;;;;;14.64;100.00;98338.93;1784620;79;22278;-65
2021/05/06 08:07:25;;;;;;;1.10;1.00;;;;;;;14.73;100.00;98349.71;1784480;79;20985;-67
2021/05/06 08:09:54;;;;;;;1.70;0.80;;;;;;;14.81;100.00;98351.63;1784498;79;21111;-65
2021/05/06 08:12:25;;;;;;;1.10;0.90;;;;;;;14.89;100.00;98360.64;1784604;79;21554;-67
2021/05/06 08:14:54;;;;;;;1.30;0.90;;;;;;;14.96;100.00;98360.37;1784971;79;20938;-65
2021/05/06 08:17:24;;;;;;;1.00;0.90;;;;;;;15.00;100.00;98358.00;1784667;79;21507;-67
2021/05/06 08:19:56;;;;;;;2.70;0.90;;;;;;;14.98;100.00;98366.95;1784905;80;20898;-66
2021/05/06 08:22:26;;;;;;;3.72;1.50;;;;;;;15.01;100.00;98371.69;1784907;80;20942;-66
2021/05/06 08:24:56;;;;;;;1.37;0.90;;;;;;;15.06;100.00;98372.85;1784687;80;20938;-66
2021/05/06 08:27:26;;;;;;;2.30;1.50;;;;;;;15.15;100.00;98376.99;1784965;80;21500;-67
2021/05/06 08:29:56;;;;;;;1.72;1.10;;;;;;;15.25;100.00;98375.73;1784787;80;21356;-67
2021/05/06 08:32:30;;;;;;;2.40;1.65;;;;;;;15.39;100.00;98380.93;1784464;79;21064;-67
2021/05/06 08:35:00;;;;;;;3.15;1.60;;;;;;;15.52;100.00;98380.00;1785162;79;20930;-67
2021/05/06 08:37:29;;;;;;;1.87;1.20;;;;;;;15.63;100.00;98383.64;1784832;80;20925;-67
2021/05/06 08:39:59;;;;;;;4.87;0.93;;;;;;;15.64;99.15;98380.92;1784951;79;20930;-68
2021/05/06 08:42:30;;;;;;;3.25;1.10;;;;;;;15.72;100.00;98374.84;1784632;80;21350;-67
2021/05/06 08:45:03;;;;;;;1.60;1.22;;;;;;;15.90;100.00;98373.24;1784706;79;24745;-67
2021/05/06 08:47:33;;;;;;;2.55;0.93;;;;;;;16.16;99.67;98374.88;1784762;79;21548;-66
2021/05/06 08:50:04;;;;;;;1.00;0.80;;;;;;;16.43;97.52;98375.53;1784651;79;20942;-68
2021/05/06 08:52:33;;;;;;;1.62;0.80;;;;;;;16.71;95.25;98384.60;1784628;79;20985;-68
2021/05/06 08:55:04;;;;;;;5.40;0.85;;;;;;;16.97;93.09;98382.12;1730203;80;21342;-68
2021/05/06 08:57:34;;;;;;;1.52;0.90;;;;;;;17.27;88.96;98382.59;1784499;79;20993;-69
2021/05/06 09:00:05;;;;;;;1.07;0.90;;;;;;;17.50;85.12;98389.53;1784855;79;21009;-66
2021/05/06 09:02:35;;;;;;;2.55;0.70;;;;;;;17.71;83.35;98389.06;1784943;79;21004;-67
2021/05/06 09:05:09;;;;;;;2.10;0.53;;;;;;;17.91;79.10;98389.84;1784863;80;20933;-66
2021/05/06 09:07:45;;;;;;;1.85;0.70;;;;;;;18.01;74.79;98392.97;1785108;80;21197;-66
2021/05/06 09:10:39;;;;;;;1.00;0.62;;;;;;;17.96;67.22;98397.63;1784993;79;20966;-65
2021/05/06 09:13:30;;;;;;;1.20;0.50;;;;;;;17.96;67.22;98397.63;1782502;79;21034;-66
2021/05/06 09:16:00;;;;;;;1.07;0.70;;;;;;;17.88;64.62;98407.80;1768473;80;21485;-65
2021/05/06 09:18:47;;;;;;;1.00;0.60;;;;;;;17.82;63.10;98404.09;1768388;80;20935;-67
2021/05/06 09:21:29;;;;;;;1.72;0.65;;;;;;;17.82;62.54;98408.09;1768292;81;21368;-68
2021/05/06 09:24:25;;;;;;;0.78;0.60;;;;;;;17.83;62.46;98409.83;1768450;80;21362;-67
2021/05/06 09:26:46;;;;;;;0.88;0.60;;;;;;;17.87;62.50;98409.61;1764885;81;21457;-66
2021/05/06 09:29:37;;;;;;;1.90;0.70;;;;;;;17.92;62.41;98414.26;1768352;80;20978;-67
2021/05/06 09:32:19;;;;;;;1.50;0.80;;;;;;;18.03;61.58;98416.45;1768311;80;21037;-65
2021/05/06 09:34:53;;;;;;;1.55;0.95;;;;;;;18.14;62.46;98415.46;1768220;81;21380;-66
2021/05/06 09:37:30;;;;;;;2.12;0.82;;;;;;;18.23;59.84;98417.68;1768283;80;21014;-65
2021/05/06 09:40:07;;;;;;;2.67;0.80;;;;;;;18.23;59.84;98417.68;1768265;81;20922;-67
2021/05/06 09:42:47;;;;;;;2.42;1.10;;;;;;;18.27;58.15;98422.87;1745214;81;20954;-66
2021/05/06 09:45:24;;;;;;;3.27;1.17;;;;;;;18.27;57.18;98422.41;1767987;81;21041;-67
2021/05/06 09:48:12;;;;;;;2.95;0.85;;;;;;;18.27;57.24;98425.54;1768081;81;21423;-66
2021/05/06 09:50:44;;;;;;;1.40;0.88;;;;;;;18.28;56.19;98423.27;1768306;81;21148;-67
2021/05/06 09:53:15;;;;;;;0.87;0.60;;;;;;;18.21;55.01;98425.38;1768055;80;21555;-68
2021/05/06 09:55:46;;;;;;;0.85;0.65;;;;;;;18.12;53.07;98419.14;1767807;81;20982;-68
2021/05/06 09:58:18;;;;;;;1.45;0.70;;;;;;;18.12;53.07;98419.14;1767959;81;20970;-67
2021/05/06 10:00:48;;;;;;;;;;;;;;;18.04;52.64;98425.31;1771058;80;21484;-68
2021/05/06 10:03:21;;;;;;;2.42;0.80;;;;;;;18.02;53.09;98429.39;1768199;80;20175;-68
2021/05/06 10:05:52;;;;;;;1.72;0.80;;;;;;;18.04;53.21;98424.84;1768203;80;20927;-67
2021/05/06 10:08:33;;;;;;;1.45;0.70;;;;;;;18.07;53.05;98426.51;1768245;81;20922;-68
2021/05/06 10:11:09;;;;;;;;;;;;;;;18.16;52.59;98438.94;1769775;80;20926;-68
2021/05/06 10:13:42;;;;;;;0.78;0.53;;;;;;;18.27;51.92;98442.42;1767970;80;22337;-69
2021/05/06 10:16:14;;;;;;;4.67;0.90;;;;;;;18.27;51.92;98442.42;1785482;78;21623;-69
2021/05/06 10:18:45;;;;;;;2.37;0.67;;;;;;;18.31;51.11;98444.48;1787434;80;20981;-69
2021/05/06 10:21:17;;;;;;;3.77;0.70;;;;;;;18.37;51.01;98442.84;1787144;78;21099;-69
2021/05/06 10:23:50;;;;;;;1.65;0.72;;;;;;;18.37;51.01;98442.84;1787549;80;21440;-69
2021/05/06 10:26:19;;;;;;;1.33;0.73;;;;;;;18.46;50.91;98443.76;1757618;80;21484;-69
2021/05/06 10:28:51;;;;;;;4.45;0.88;;;;;;;18.52;50.38;98442.98;1787420;78;21064;-68
2021/05/06 10:31:23;;;;;;;2.12;1.00;;;;;;;18.59;51.09;98444.88;1787573;80;20989;-66
2021/05/06 10:33:53;;;;;;;1.75;1.00;;;;;;;18.71;51.07;98446.97;1787511;78;21041;-68
2021/05/06 10:36:23;;;;;;;1.40;0.90;;;;;;;18.95;50.16;98444.89;1787420;80;21589;-67
2021/05/06 10:38:53;;;;;;;1.17;0.70;;;;;;;18.95;50.16;98444.89;1787727;80;22124;-69
2021/05/06 10:41:29;;;;;;;4.58;0.82;;;;;;;19.02;49.24;98441.43;1787360;78;20978;-68
2021/05/06 10:44:10;;;;;;;2.30;0.70;;;;;;;19.02;48.89;98446.30;1787483;80;21076;-68
2021/05/06 10:47:01;;;;;;;1.45;1.00;;;;;;;18.98;48.50;98452.75;1787269;78;21487;-68
2021/05/06 10:49:43;;;;;;;1.67;0.95;;;;;;;18.92;48.43;98454.84;1787663;80;21112;-69
2021/05/06 10:52:16;;;;;;;4.28;1.37;;;;;;;18.92;48.94;98458.41;1786597;80;21373;-69
2021/05/06 10:54:50;;;;;;;8.23;3.12;;;;;;;19.03;49.77;98453.38;1758400;80;20997;-69
2021/05/06 10:57:28;;;;;;;5.83;1.40;;;;;;;19.16;49.84;98437.57;1787741;80;21053;-69
2021/05/06 10:59:58;;;;;;;3.87;0.90;;;;;;;19.30;49.36;98445.73;1787240;78;21048;-69
2021/05/06 11:02:45;;;;;;;2.83;0.88;;;;;;;19.37;46.81;98448.95;1787054;79;20944;-68
2021/05/06 11:05:25;;;;;;;4.10;1.50;;;;;;;19.40;47.01;98447.00;1787133;78;21435;-70
2021/05/06 11:08:19;;;;;;;1.72;1.07;;;;;;;19.50;47.57;98457.61;1787275;78;21135;-69
2021/05/06 11:10:54;;;;;;;4.67;1.20;;;;;;;19.63;46.92;98460.99;1787703;80;21048;-66
2021/05/06 11:13:28;;;;;;;1.45;1.05;;;;;;;19.76;45.77;98455.37;1787623;80;21110;-67
2021/05/06 11:16:17;;;;;;;5.28;1.10;;;;;;;19.85;45.05;98457.55;1787443;78;20910;-67
2021/05/06 11:18:52;;;;;;;4.75;1.22;;;;;;;19.97;44.81;98454.70;1787757;78;21484;-66
2021/05/06 11:21:34;;;;;;;2.75;1.50;;;;;;;20.05;44.47;98456.48;1787748;79;21508;-66
2021/05/06 11:24:17;;;;;;;2.98;1.00;;;;;;;20.12;44.92;98460.54;1787941;80;21163;-66
2021/05/06 11:27:23;;;;;;;11.95;1.15;;;;;;;20.13;44.38;98464.47;1788079;80;21044;-65
2021/05/06 11:29:55;;;;;;;1.07;0.90;;;;;;;20.09;43.15;98461.58;1787997;80;21097;-66
2021/05/06 11:32:35;;;;;;;4.47;1.00;;;;;;;19.99;43.33;98457.68;1787327;78;21357;-67
2021/05/06 11:35:06;;;;;;;2.37;0.85;;;;;;;19.97;43.18;98466.27;1787552;80;21005;-68
2021/05/06 11:37:36;;;;;;;2.72;0.80;;;;;;;19.96;42.87;98471.23;1787530;79;20977;-67
2021/05/06 11:40:11;;;;;;;1.70;0.90;;;;;;;19.90;41.87;98474.72;1787043;78;21147;-68
2021/05/06 11:42:42;;;;;;;4.70;0.90;;;;;;;19.68;41.03;98466.96;1787124;80;21440;-67
2021/05/06 11:45:27;;;;;;;2.12;0.95;;;;;;;19.42;41.21;98469.19;1758147;80;21274;-66
2021/05/06 11:47:57;;;;;;;1.87;1.12;;;;;;;19.41;41.76;98467.45;1787856;78;20945;-66
2021/05/06 11:50:32;;;;;;;1.65;0.93;;;;;;;19.53;42.01;98472.66;1787946;79;20922;-65
2021/05/06 11:53:01;;;;;;;3.83;1.57;;;;;;;19.65;41.91;98471.14;1787622;79;20926;-67
2021/05/06 11:55:39;;;;;;;2.50;1.10;;;;;;;19.74;41.52;98472.84;1787525;78;21064;-65
2021/05/06 11:58:10;;;;;;;1.80;0.82;;;;;;;19.69;40.61;98471.37;1787561;80;22289;-66
2021/05/06 12:00:40;;;;;;;2.65;0.93;;;;;;;19.59;40.18;98478.16;1787717;80;21143;-66
2021/05/06 12:03:13;;;;;;;3.70;1.22;;;;;;;19.44;39.94;98475.31;1787644;78;21063;-67
2021/05/06 12:06:00;;;;;;;3.58;1.12;;;;;;;19.36;40.12;98475.30;1787601;80;21072;-66
2021/05/06 12:08:46;;;;;;;1.85;1.20;;;;;;;19.28;40.12;98473.50;1787797;78;21484;-66
2021/05/06 12:11:16;;;;;;;4.95;1.40;;;;;;;19.25;40.39;98484.35;1787868;80;22349;-66
2021/05/06 12:13:49;;;;;;;3.80;1.35;;;;;;;19.27;40.99;98480.66;1787948;78;20894;-67
2021/05/06 12:16:22;;;;;;;3.25;1.10;;;;;;;19.36;41.10;98490.00;1775160;80;20942;-67
2021/05/06 12:19:12;;;;;;;1.52;0.88;;;;;;;19.45;40.94;98494.43;1768344;81;21073;-67
2021/05/06 12:21:53;;;;;;;3.30;1.17;;;;;;;19.56;40.97;98486.34;1768592;80;21010;-66
2021/05/06 12:24:33;;;;;;;4.03;1.20;;;;;;;19.65;40.50;98485.86;1768787;80;21131;-68
2021/05/06 12:27:26;;;;;;;3.80;1.35;;;;;;;19.70;39.75;98483.80;1768659;81;21018;-66
2021/05/06 12:30:02;;;;;;;;;;;;;;;19.71;39.37;98485.05;1771320;80;20990;-67
2021/05/06 12:32:35;;;;;;;2.95;1.05;;;;;;;19.78;40.09;98485.11;1765069;80;20179;-66
2021/05/06 12:35:06;;;;;;;9.40;0.98;;;;;;;19.89;40.06;98485.91;1764097;81;21572;-69
2021/05/06 12:37:41;;;;;;;1.98;1.32;;;;;;;19.94;39.52;98489.66;1740898;81;21204;-72
2021/05/06 12:40:17;;;;;;;5.10;1.20;;;;;;;19.90;38.86;98487.62;1744320;81;21164;-69
2021/05/06 12:42:50;;;;;;;7.55;1.30;;;;;;;19.88;38.55;98482.84;1759763;81;21610;-67
2021/05/06 12:45:27;;;;;;;13.55;2.20;;;;;;;19.77;38.64;98489.21;1685817;83;21069;-72
2021/05/06 12:47:58;;;;;;;3.70;1.00;;;;;;;19.64;38.73;98490.81;1683562;83;21509;-69
2021/05/06 12:50:30;;;;;;;2.40;0.80;;;;;;;19.56;38.88;98494.38;1686917;85;21203;-69
2021/05/06 12:53:08;;;;;;;5.03;1.25;;;;;;;19.48;39.24;98494.27;1688134;83;20989;-70
2021/05/06 12:55:41;;;;;;;20.90;1.20;;;;;;;19.37;38.98;98493.94;1687509;85;20963;-70
2021/05/06 12:58:25;;;;;;;2.70;1.00;;;;;;;19.36;39.06;98492.20;1700093;83;21166;-67
2021/05/06 13:01:03;;;;;;;3.67;0.95;;;;;;;19.25;39.21;98497.25;1706140;83;21089;-70
2021/05/06 13:03:38;;;;;;;17.73;1.50;;;;;;;19.13;39.05;98505.43;1705313;83;22392;-71
2021/05/06 13:06:15;;;;;;;4.75;1.10;;;;;;;19.02;38.83;98516.27;1716212;83;21080;-70
2021/05/06 13:08:46;;;;;;;3.80;1.00;;;;;;;18.91;39.25;98509.23;1716245;82;21168;-70
2021/05/06 13:11:22;;;;;;;3.47;0.90;;;;;;;18.84;39.62;98499.32;1702704;83;21571;-71
2021/05/06 13:13:54;;;;;;;4.55;1.30;;;;;;;18.82;39.57;98499.40;1702419;83;20967;-71
2021/05/06 13:16:49;;;;;;;2.52;1.32;;;;;;;18.82;39.52;98495.86;1690135;83;21275;-72
2021/05/06 13:19:26;;;;;;;2.27;1.35;;;;;;;18.83;39.49;98495.78;1700486;83;21061;-71
2021/05/06 13:22:03;;;;;;;2.22;1.30;;;;;;;18.84;39.42;98493.50;1707498;83;21638;-71
2021/05/06 13:24:43;;;;;;;7.85;1.50;;;;;;;18.88;39.98;98496.42;1716077;83;21089;-70
2021/05/06 13:27:23;;;;;;;5.03;1.30;;;;;;;18.88;39.92;98496.42;1715875;83;21050;-69
2021/05/06 13:30:04;;;;;;;2.45;1.37;;;;;;;18.81;39.83;98508.36;1716865;83;21401;-68
2021/05/06 13:32:35;;;;;;;8.75;1.30;;;;;;;18.86;40.43;98504.12;1712869;83;21211;-69
2021/05/06 13:35:08;;;;;;;5.15;1.27;;;;;;;18.91;40.25;98506.09;1705499;83;21120;-70
2021/05/06 13:37:43;;;;;;;1.47;0.98;;;;;;;18.95;40.09;98510.84;1692392;83;21085;-70
2021/05/06 13:40:12;;;;;;;1.52;1.20;;;;;;;19.02;40.04;98493.08;1717139;82;20923;-69
2021/05/06 13:42:42;;;;;;;3.62;1.30;;;;;;;19.10;39.36;98500.70;1688535;85;21634;-69
2021/05/06 13:45:14;;;;;;;2.80;1.20;;;;;;;19.22;39.18;98502.75;1688309;84;21234;-70
2021/05/06 13:47:47;;;;;;;3.02;1.27;;;;;;;19.40;39.52;98504.98;1688097;83;21144;-71
2021/05/06 13:50:16;;;;;;;4.65;1.37;;;;;;;19.55;39.05;98510.03;1677426;85;21017;-70
2021/05/06 13:52:47;;;;;;;2.83;1.50;;;;;;;19.70;38.71;98511.89;1688239;83;21536;-72
2021/05/06 13:55:18;;;;;;;6.42;1.75;;;;;;;19.86;38.21;98510.13;1694163;83;21472;-69
2021/05/06 13:57:52;;;;;;;2.97;1.30;;;;;;;19.97;38.05;98511.78;1716210;83;21176;-73
2021/05/06 14:00:24;;;;;;;3.75;1.47;;;;;;;20.05;37.65;98507.34;1703646;82;21061;-69
2021/05/06 14:02:56;;;;;;;4.33;1.70;;;;;;;20.00;37.09;98508.07;1688447;83;21076;-70
2021/05/06 14:05:29;;;;;;;6.25;1.50;;;;;;;19.98;36.99;98516.66;1688365;84;20935;-70
2021/05/06 14:07:59;;;;;;;4.62;1.50;;;;;;;19.94;37.14;98515.96;1688091;83;21742;-70
2021/05/06 14:10:31;;;;;;;3.15;1.42;;;;;;;19.96;37.10;98516.74;1699279;83;21065;-72
2021/05/06 14:13:03;;;;;;;2.55;1.80;;;;;;;20.03;36.83;98522.63;1699367;82;20942;-72
2021/05/06 14:15:36;;;;;;;4.30;1.50;;;;;;;20.13;36.75;98519.84;1717143;82;21547;-71
2021/05/06 14:18:10;;;;;;;2.87;1.50;;;;;;;20.24;36.43;98516.56;1716982;83;21054;-71
2021/05/06 14:20:43;;;;;;;3.05;1.60;;;;;;;20.35;36.23;98504.81;1710043;83;22378;-70
2021/05/06 14:23:22;;;;;;;2.02;1.30;;;;;;;20.45;36.20;98514.57;1688161;84;21152;-72
2021/05/06 14:25:52;;;;;;;2.90;1.17;;;;;;;20.53;35.74;98513.19;1728586;80;21164;-70
2021/05/06 14:28:26;;;;;;;4.78;1.50;;;;;;;20.59;34.92;98506.14;1712075;83;20931;-71
2021/05/06 14:31:05;;;;;;;3.95;1.60;;;;;;;20.60;34.60;98511.88;1775842;80;21145;-72
2021/05/06 14:33:37;;;;;;;2.20;1.30;;;;;;;20.54;34.31;98513.58;1712260;83;21489;-69
2021/05/06 14:36:09;;;;;;;2.30;1.07;;;;;;;20.48;34.02;98503.20;1775819;80;20938;-71
2021/05/06 14:38:41;;;;;;;2.77;1.15;;;;;;;20.55;34.15;98509.08;1685805;83;21103;-72
2021/05/06 14:41:12;;;;;;;9.03;1.40;;;;;;;20.62;34.32;98511.80;1672087;84;21544;-72
2021/05/06 14:43:44;;;;;;;1.92;1.05;;;;;;;20.66;34.13;98518.23;1649770;84;21209;-69
2021/05/06 14:46:16;;;;;;;6.15;1.30;;;;;;;20.71;33.59;98517.97;1697074;82;21214;-70
2021/05/06 14:48:47;;;;;;;6.00;2.10;;;;;;;20.71;33.37;98517.97;1661629;86;21582;-69
2021/05/06 14:51:17;;;;;;;2.65;1.00;;;;;;;20.78;33.00;98526.52;1678503;83;21098;-70
2021/05/06 14:53:49;;;;;;;2.80;0.80;;;;;;;20.77;31.49;98524.80;1697910;84;21053;-69
2021/05/06 14:56:18;;;;;;;1.35;0.80;;;;;;;20.74;30.83;98528.04;1688236;85;21064;-70
2021/05/06 14:58:49;;;;;;;8.18;0.93;;;;;;;20.67;29.94;98525.32;1711704;81;21382;-68
2021/05/06 15:01:20;;;;;;;1.45;0.70;;;;;;;20.54;29.30;98522.09;1714788;81;20938;-69
2021/05/06 15:03:51;;;;;;;3.15;1.00;;;;;;;20.40;29.23;98517.50;1704260;82;20942;-69
2021/05/06 15:06:22;;;;;;;4.53;1.23;;;;;;;20.33;29.01;98513.38;1730420;80;21069;-69